sensor_id;sensor_type;location;lat;lon;timestamp;pressure;altitude;pressure_sealevel;temperature;humidity
78198;BME280;67472;51.554;7.812;2023-02-28T00:00:12;102161.09;;;-1.31;100.00
78198;BME280;67472;51.554;7.812;2023-02-28T00:02:57;102159.38;;;-1.32;100.00
78198;BME280;67472;51.554;7.812;2023-02-28T00:05:41;102161.97;;;-1.31;100.00
78198;BME280;67472;51.554;7.812;2023-02-28T00:08:26;102166.25;;;-1.28;100.00
78198;BME280;67472;51.554;7.812;2023-02-28T00:11:13;102164.53;;;-1.29;100.00
78198;BME280;67472;51.554;7.812;2023-02-28T00:13:58;102162.75;;;-1.24;100.00
78198;BME280;67472;51.554;7.812;2023-02-28T00:16:42;102163.69;;;-1.33;100.00
78198;BME280;67472;51.554;7.812;2023-02-28T00:19:27;102158.56;;;-1.37;100.00
78198;BME280;67472;51.554;7.812;2023-02-28T00:22:11;102162.94;;;-1.44;100.00
78198;BME280;67472;51.554;7.812;2023-02-28T00:24:56;102162.06;;;-1.40;100.00
78198;BME280;67472;51.554;7.812;2023-02-28T00:27:41;102163.78;;;-1.40;100.00
78198;BME280;67472;51.554;7.812;2023-02-28T00:30:25;102156.88;;;-1.41;100.00
78198;BME280;67472;51.554;7.812;2023-02-28T00:33:10;102156.94;;;-1.46;100.00
78198;BME280;67472;51.554;7.812;2023-02-28T00:36:04;102164.63;;;-1.38;100.00
78198;BME280;67472;51.554;7.812;2023-02-28T00:38:50;102153.38;;;-1.39;100.00
78198;BME280;67472;51.554;7.812;2023-02-28T00:41:34;102153.38;;;-1.39;100.00
78198;BME280;67472;51.554;7.812;2023-02-28T00:44:18;102150.88;;;-1.48;100.00
78198;BME280;67472;51.554;7.812;2023-02-28T00:47:05;102157.97;;;-1.66;100.00
78198;BME280;67472;51.554;7.812;2023-02-28T00:49:50;102158.06;;;-1.76;100.00
78198;BME280;67472;51.554;7.812;2023-02-28T00:52:35;102156.53;;;-1.98;100.00
78198;BME280;67472;51.554;7.812;2023-02-28T00:55:19;102154.75;;;-1.93;100.00
78198;BME280;67472;51.554;7.812;2023-02-28T00:58:04;102156.47;;;-1.92;100.00
78198;BME280;67472;51.554;7.812;2023-02-28T01:00:48;102158.22;;;-1.92;100.00
78198;BME280;67472;51.554;7.812;2023-02-28T01:03:33;102153.97;;;-2.01;100.00
78198;BME280;67472;51.554;7.812;2023-02-28T01:06:17;102160.00;;;-2.00;100.00
78198;BME280;67472;51.554;7.812;2023-02-28T01:09:03;102165.34;;;-2.24;100.00
78198;BME280;67472;51.554;7.812;2023-02-28T01:11:48;102167.16;;;-2.43;100.00
78198;BME280;67472;51.554;7.812;2023-02-28T01:14:33;102163.75;;;-2.48;100.00
78198;BME280;67472;51.554;7.812;2023-02-28T01:17:18;102168.84;;;-2.36;100.00
78198;BME280;67472;51.554;7.812;2023-02-28T01:20:03;102175.63;;;-2.17;100.00
78198;BME280;67472;51.554;7.812;2023-02-28T01:22:47;102171.38;;;-2.29;100.00
78198;BME280;67472;51.554;7.812;2023-02-28T01:25:34;102176.53;;;-2.25;100.00
78198;BME280;67472;51.554;7.812;2023-02-28T01:28:21;102168.72;;;-2.13;100.00
78198;BME280;67472;51.554;7.812;2023-02-28T01:31:06;102175.59;;;-2.09;100.00
78198;BME280;67472;51.554;7.812;2023-02-28T01:33:50;102171.06;;;-1.85;100.00
78198;BME280;67472;51.554;7.812;2023-02-28T01:36:34;102162.47;;;-1.87;100.00
78198;BME280;67472;51.554;7.812;2023-02-28T01:39:20;102162.38;;;-1.76;100.00
78198;BME280;67472;51.554;7.812;2023-02-28T01:42:04;102165.97;;;-1.92;100.00
78198;BME280;67472;51.554;7.812;2023-02-28T01:48:07;102156.50;;;-1.96;100.00
78198;BME280;67472;51.554;7.812;2023-02-28T01:50:55;102155.59;;;-1.91;100.00
78198;BME280;67472;51.554;7.812;2023-02-28T01:53:45;102160.69;;;-1.79;100.00
78198;BME280;67472;51.554;7.812;2023-02-28T01:56:33;102155.38;;;-1.65;100.00
78198;BME280;67472;51.554;7.812;2023-02-28T01:59:34;102153.72;;;-1.74;100.00
78198;BME280;67472;51.554;7.812;2023-02-28T02:02:21;102153.84;;;-1.87;100.00
78198;BME280;67472;51.554;7.812;2023-02-28T02:05:12;102157.34;;;-1.97;100.00
78198;BME280;67472;51.554;7.812;2023-02-28T02:08:03;102159.09;;;-1.99;100.00
78198;BME280;67472;51.554;7.812;2023-02-28T02:10:55;102154.03;;;-2.14;100.00
78198;BME280;67472;51.554;7.812;2023-02-28T02:13:51;102148.84;;;-2.14;100.00
78198;BME280;67472;51.554;7.812;2023-02-28T02:17:04;102147.22;;;-2.26;100.00
78198;BME280;67472;51.554;7.812;2023-02-28T02:26:06;102146.41;;;-2.34;100.00
78198;BME280;67472;51.554;7.812;2023-02-28T02:35:54;102142.22;;;-2.50;100.00
78198;BME280;67472;51.554;7.812;2023-02-28T02:38:44;102144.84;;;-2.61;100.00
78198;BME280;67472;51.554;7.812;2023-02-28T02:44:36;102139.00;;;-2.96;100.00
78198;BME280;67472;51.554;7.812;2023-02-28T02:47:26;102147.66;;;-3.15;100.00
78198;BME280;67472;51.554;7.812;2023-02-28T02:50:17;102154.56;;;-3.14;100.00
78198;BME280;67472;51.554;7.812;2023-02-28T02:53:05;102157.13;;;-3.13;100.00
78198;BME280;67472;51.554;7.812;2023-02-28T02:55:52;102160.59;;;-3.17;100.00
78198;BME280;67472;51.554;7.812;2023-02-28T02:58:41;102164.00;;;-3.03;100.00
78198;BME280;67472;51.554;7.812;2023-02-28T03:01:29;102159.69;;;-3.02;100.00
78198;BME280;67472;51.554;7.812;2023-02-28T03:04:20;102164.81;;;-2.93;100.00
78198;BME280;67472;51.554;7.812;2023-02-28T03:07:06;102167.38;;;-2.87;100.00
78198;BME280;67472;51.554;7.812;2023-02-28T03:09:54;102157.88;;;-2.87;100.00
78198;BME280;67472;51.554;7.812;2023-02-28T03:12:51;102154.41;;;-2.75;100.00
78198;BME280;67472;51.554;7.812;2023-02-28T03:18:58;102157.88;;;-2.87;100.00
78198;BME280;67472;51.554;7.812;2023-02-28T03:24:57;102151.00;;;-2.86;100.00
78198;BME280;67472;51.554;7.812;2023-02-28T03:30:53;102152.75;;;-2.96;100.00
78198;BME280;67472;51.554;7.812;2023-02-28T03:33:44;102151.97;;;-3.08;100.00
78198;BME280;67472;51.554;7.812;2023-02-28T03:36:43;102152.81;;;-3.09;100.00
78198;BME280;67472;51.554;7.812;2023-02-28T03:39:39;102152.84;;;-3.27;100.00
78198;BME280;67472;51.554;7.812;2023-02-28T03:42:31;102162.38;;;-3.40;100.00
78198;BME280;67472;51.554;7.812;2023-02-28T03:45:25;102164.94;;;-3.35;100.00
78198;BME280;67472;51.554;7.812;2023-02-28T03:48:18;102163.25;;;-3.42;100.00
78198;BME280;67472;51.554;7.812;2023-02-28T03:51:06;102176.13;;;-3.36;100.00
78198;BME280;67472;51.554;7.812;2023-02-28T03:53:59;102166.59;;;-3.16;100.00
78198;BME280;67472;51.554;7.812;2023-02-28T03:57:03;102172.59;;;-3.07;100.00
78198;BME280;67472;51.554;7.812;2023-02-28T03:59:55;102173.44;;;-2.96;100.00
78198;BME280;67472;51.554;7.812;2023-02-28T04:02:41;102174.41;;;-3.22;100.00
78198;BME280;67472;51.554;7.812;2023-02-28T04:05:25;102170.09;;;-3.29;100.00
78198;BME280;67472;51.554;7.812;2023-02-28T04:08:10;102176.16;;;-3.42;100.00
78198;BME280;67472;51.554;7.812;2023-02-28T04:11:04;102166.66;;;-3.34;100.00
78198;BME280;67472;51.554;7.812;2023-02-28T04:13:50;102168.38;;;-3.39;100.00
78198;BME280;67472;51.554;7.812;2023-02-28T04:16:37;102169.25;;;-3.28;100.00
78198;BME280;67472;51.554;7.812;2023-02-28T04:19:22;102169.25;;;-3.31;100.00
78198;BME280;67472;51.554;7.812;2023-02-28T04:22:08;102170.06;;;-3.22;100.00
78198;BME280;67472;51.554;7.812;2023-02-28T04:24:52;102167.47;;;-3.22;100.00
78198;BME280;67472;51.554;7.812;2023-02-28T04:27:38;102162.31;;;-3.20;100.00
78198;BME280;67472;51.554;7.812;2023-02-28T04:30:23;102163.16;;;-3.18;100.00
78198;BME280;67472;51.554;7.812;2023-02-28T04:33:07;102170.06;;;-3.11;100.00
78198;BME280;67472;51.554;7.812;2023-02-28T04:36:04;102174.34;;;-3.16;100.00
78198;BME280;67472;51.554;7.812;2023-02-28T04:38:50;102172.63;;;-3.16;100.00
78198;BME280;67472;51.554;7.812;2023-02-28T04:41:34;102170.06;;;-3.20;100.00
78198;BME280;67472;51.554;7.812;2023-02-28T04:44:18;102176.09;;;-3.30;100.00
78198;BME280;67472;51.554;7.812;2023-02-28T04:47:03;102176.13;;;-3.39;100.00
78198;BME280;67472;51.554;7.812;2023-02-28T04:49:47;102174.47;;;-3.69;100.00
78198;BME280;67472;51.554;7.812;2023-02-28T04:52:32;102177.03;;;-3.60;100.00
78198;BME280;67472;51.554;7.812;2023-02-28T04:55:16;102171.84;;;-3.68;100.00
78198;BME280;67472;51.554;7.812;2023-02-28T04:58:01;102172.75;;;-3.78;100.00
78198;BME280;67472;51.554;7.812;2023-02-28T05:00:45;102171.03;;;-3.80;100.00
78198;BME280;67472;51.554;7.812;2023-02-28T05:03:30;102181.31;;;-3.59;100.00
78198;BME280;67472;51.554;7.812;2023-02-28T05:06:14;102178.72;;;-3.50;100.00
78198;BME280;67472;51.554;7.812;2023-02-28T05:08:59;102184.78;;;-3.60;100.00
78198;BME280;67472;51.554;7.812;2023-02-28T05:11:43;102183.03;;;-3.49;100.00
78198;BME280;67472;51.554;7.812;2023-02-28T05:14:28;102183.91;;;-3.53;100.00
78198;BME280;67472;51.554;7.812;2023-02-28T05:17:12;102184.75;;;-3.71;100.00
78198;BME280;67472;51.554;7.812;2023-02-28T05:19:57;102183.91;;;-3.73;100.00
78198;BME280;67472;51.554;7.812;2023-02-28T05:22:41;102183.91;;;-3.82;100.00
78198;BME280;67472;51.554;7.812;2023-02-28T05:25:26;102181.34;;;-3.86;100.00
78198;BME280;67472;51.554;7.812;2023-02-28T05:28:11;102179.59;;;-3.87;100.00
78198;BME280;67472;51.554;7.812;2023-02-28T05:30:55;102189.06;;;-3.92;100.00
78198;BME280;67472;51.554;7.812;2023-02-28T05:33:39;102193.34;;;-4.11;100.00
78198;BME280;67472;51.554;7.812;2023-02-28T05:36:24;102193.31;;;-4.26;100.00
78198;BME280;67472;51.554;7.812;2023-02-28T05:39:09;102198.50;;;-4.16;100.00
78198;BME280;67472;51.554;7.812;2023-02-28T05:41:56;102195.06;;;-4.09;100.00
78198;BME280;67472;51.554;7.812;2023-02-28T05:44:40;102195.88;;;-4.26;100.00
78198;BME280;67472;51.554;7.812;2023-02-28T05:47:26;102197.66;;;-4.06;100.00
78198;BME280;67472;51.554;7.812;2023-02-28T05:50:11;102196.78;;;-4.21;100.00
78198;BME280;67472;51.554;7.812;2023-02-28T05:52:55;102198.47;;;-4.23;100.00
78198;BME280;67472;51.554;7.812;2023-02-28T05:55:39;102196.75;;;-4.26;100.00
78198;BME280;67472;51.554;7.812;2023-02-28T05:58:25;102207.97;;;-4.16;100.00
78198;BME280;67472;51.554;7.812;2023-02-28T06:01:33;102205.44;;;-3.92;100.00
78198;BME280;67472;51.554;7.812;2023-02-28T06:04:19;102208.84;;;-3.97;100.00
78198;BME280;67472;51.554;7.812;2023-02-28T06:07:03;102213.13;;;-4.13;100.00
78198;BME280;67472;51.554;7.812;2023-02-28T06:09:48;102209.63;;;-4.36;100.00
78198;BME280;67472;51.554;7.812;2023-02-28T06:12:32;102204.50;;;-4.24;100.00
78198;BME280;67472;51.554;7.812;2023-02-28T06:15:17;102214.84;;;-4.21;100.00
78198;BME280;67472;51.554;7.812;2023-02-28T06:18:01;102219.97;;;-4.27;100.00
78198;BME280;67472;51.554;7.812;2023-02-28T06:20:53;102211.34;;;-4.34;100.00
78198;BME280;67472;51.554;7.812;2023-02-28T06:23:38;102223.38;;;-4.31;100.00
78198;BME280;67472;51.554;7.812;2023-02-28T06:26:23;102224.28;;;-4.22;100.00
78198;BME280;67472;51.554;7.812;2023-02-28T06:29:07;102226.00;;;-4.18;100.00
78198;BME280;67472;51.554;7.812;2023-02-28T06:31:52;102222.63;;;-3.86;100.00
78198;BME280;67472;51.554;7.812;2023-02-28T06:34:37;102220.03;;;-3.95;100.00
78198;BME280;67472;51.554;7.812;2023-02-28T06:37:21;102223.47;;;-4.00;100.00
78198;BME280;67472;51.554;7.812;2023-02-28T06:40:06;102224.34;;;-3.93;100.00
78198;BME280;67472;51.554;7.812;2023-02-28T06:42:52;102225.19;;;-3.94;100.00
78198;BME280;67472;51.554;7.812;2023-02-28T06:45:37;102221.69;;;-4.28;100.00
78198;BME280;67472;51.554;7.812;2023-02-28T06:48:21;102224.28;;;-4.19;100.00
78198;BME280;67472;51.554;7.812;2023-02-28T06:51:14;102232.88;;;-4.23;100.00
78198;BME280;67472;51.554;7.812;2023-02-28T06:53:59;102236.22;;;-4.46;100.00
78198;BME280;67472;51.554;7.812;2023-02-28T06:56:43;102246.63;;;-4.30;100.00
78198;BME280;67472;51.554;7.812;2023-02-28T06:59:28;102247.47;;;-4.23;100.00
78198;BME280;67472;51.554;7.812;2023-02-28T07:02:12;102246.69;;;-4.04;100.00
78198;BME280;67472;51.554;7.812;2023-02-28T07:04:57;102250.13;;;-3.97;100.00
78198;BME280;67472;51.554;7.812;2023-02-28T07:07:41;102249.25;;;-4.06;100.00
78198;BME280;67472;51.554;7.812;2023-02-28T07:10:29;102253.56;;;-3.98;100.00
78198;BME280;67472;51.554;7.812;2023-02-28T07:13:13;102254.47;;;-3.71;100.00
78198;BME280;67472;51.554;7.812;2023-02-28T07:16:00;102253.59;;;-3.65;100.00
78198;BME280;67472;51.554;7.812;2023-02-28T07:18:45;102252.75;;;-3.52;100.00
78198;BME280;67472;51.554;7.812;2023-02-28T07:21:29;102266.53;;;-3.42;100.00
78198;BME280;67472;51.554;7.812;2023-02-28T07:24:14;102257.03;;;-3.24;100.00
78198;BME280;67472;51.554;7.812;2023-02-28T07:27:00;102267.38;;;-3.18;100.00
78198;BME280;67472;51.554;7.812;2023-02-28T07:29:45;102266.53;;;-3.14;100.00
78198;BME280;67472;51.554;7.812;2023-02-28T07:32:30;102263.06;;;-3.02;100.00
78198;BME280;67472;51.554;7.812;2023-02-28T07:35:15;102262.19;;;-3.01;100.00
78198;BME280;67472;51.554;7.812;2023-02-28T07:38:00;102265.63;;;-2.92;100.00
78198;BME280;67472;51.554;7.812;2023-02-28T07:40:44;102259.53;;;-2.81;100.00
78198;BME280;67472;51.554;7.812;2023-02-28T07:43:29;102259.53;;;-2.74;100.00
78198;BME280;67472;51.554;7.812;2023-02-28T07:46:15;102262.94;;;-2.63;100.00
78198;BME280;67472;51.554;7.812;2023-02-28T07:49:00;102258.66;;;-2.68;100.00
78198;BME280;67472;51.554;7.812;2023-02-28T07:51:46;102262.13;;;-2.74;100.00
78198;BME280;67472;51.554;7.812;2023-02-28T07:54:31;102268.16;;;-2.73;100.00
78198;BME280;67472;51.554;7.812;2023-02-28T07:57:16;102271.63;;;-2.73;100.00
78198;BME280;67472;51.554;7.812;2023-02-28T08:00:01;102272.41;;;-2.54;100.00
78198;BME280;67472;51.554;7.812;2023-02-28T08:02:55;102281.88;;;-2.44;100.00
78198;BME280;67472;51.554;7.812;2023-02-28T08:05:40;102277.50;;;-2.38;100.00
78198;BME280;67472;51.554;7.812;2023-02-28T08:08:24;102286.97;;;-2.28;100.00
78198;BME280;67472;51.554;7.812;2023-02-28T08:11:13;102285.16;;;-2.13;100.00
78198;BME280;67472;51.554;7.812;2023-02-28T08:13:58;102278.25;;;-2.11;100.00
78198;BME280;67472;51.554;7.812;2023-02-28T08:16:42;102285.94;;;-1.95;100.00
78198;BME280;67472;51.554;7.812;2023-02-28T08:19:27;102280.66;;;-1.83;100.00
78198;BME280;67472;51.554;7.812;2023-02-28T08:22:12;102270.34;;;-1.84;100.00
78198;BME280;67472;51.554;7.812;2023-02-28T08:24:56;102268.53;;;-1.73;100.00
78198;BME280;67472;51.554;7.812;2023-02-28T08:27:41;102266.69;;;-1.59;100.00
78198;BME280;67472;51.554;7.812;2023-02-28T08:30:26;102263.19;;;-1.50;100.00
78198;BME280;67472;51.554;7.812;2023-02-28T08:33:10;102257.84;;;-1.32;100.00
78198;BME280;67472;51.554;7.812;2023-02-28T08:35:55;102247.38;;;-1.20;100.00
78198;BME280;67472;51.554;7.812;2023-02-28T08:38:40;102247.28;;;-1.13;100.00
78198;BME280;67472;51.554;7.812;2023-02-28T08:41:25;102252.31;;;-0.94;100.00
78198;BME280;67472;51.554;7.812;2023-02-28T08:44:10;102242.75;;;-0.89;100.00
78198;BME280;67472;51.554;7.812;2023-02-28T08:46:54;102230.53;;;-0.81;100.00
78198;BME280;67472;51.554;7.812;2023-02-28T08:49:38;102221.00;;;-0.78;100.00
78198;BME280;67472;51.554;7.812;2023-02-28T08:52:23;102212.25;;;-0.69;100.00
78198;BME280;67472;51.554;7.812;2023-02-28T08:55:07;102217.16;;;-0.46;100.00
78198;BME280;67472;51.554;7.812;2023-02-28T08:57:53;102211.09;;;-0.44;100.00
78198;BME280;67472;51.554;7.812;2023-02-28T09:00:39;102205.66;;;-0.29;100.00
78198;BME280;67472;51.554;7.812;2023-02-28T09:03:24;102215.94;;;-0.18;100.00
78198;BME280;67472;51.554;7.812;2023-02-28T09:06:10;102203.78;;;-0.16;100.00
78198;BME280;67472;51.554;7.812;2023-02-28T09:08:58;102193.13;;;0.00;100.00
78198;BME280;67472;51.554;7.812;2023-02-28T09:11:43;102193.03;;;0.08;100.00
78198;BME280;67472;51.554;7.812;2023-02-28T09:14:27;102192.72;;;0.26;100.00
78198;BME280;67472;51.554;7.812;2023-02-28T09:17:12;102176.13;;;0.36;100.00
78198;BME280;67472;51.554;7.812;2023-02-28T09:19:57;102170.53;;;0.07;100.00
78198;BME280;67472;51.554;7.812;2023-02-28T09:22:41;102169.72;;;0.04;100.00
78198;BME280;67472;51.554;7.812;2023-02-28T09:25:26;102180.78;;;0.15;100.00
78198;BME280;67472;51.554;7.812;2023-02-28T09:28:10;102187.66;;;0.20;100.00
78198;BME280;67472;51.554;7.812;2023-02-28T09:30:55;102178.84;;;0.29;100.00
78198;BME280;67472;51.554;7.812;2023-02-28T09:33:41;102176.44;;;0.15;100.00
78198;BME280;67472;51.554;7.812;2023-02-28T09:36:26;102172.69;;;0.34;100.00
78198;BME280;67472;51.554;7.812;2023-02-28T09:39:12;102167.25;;;0.48;100.00
78198;BME280;67472;51.554;7.812;2023-02-28T09:41:59;102169.31;;;0.77;100.00
78198;BME280;67472;51.554;7.812;2023-02-28T09:44:45;102166.34;;;0.96;100.00
78198;BME280;67472;51.554;7.812;2023-02-28T09:47:34;102151.84;;;1.28;100.00
78198;BME280;67472;51.554;7.812;2023-02-28T09:53:21;102136.41;;;1.97;100.00
78198;BME280;67472;51.554;7.812;2023-02-28T09:56:30;102108.97;;;1.81;100.00
78198;BME280;67472;51.554;7.812;2023-02-28T10:05:44;102125.38;;;1.86;100.00
78198;BME280;67472;51.554;7.812;2023-02-28T10:11:46;102108.63;;;1.96;100.00
78198;BME280;67472;51.554;7.812;2023-02-28T10:14:33;102103.06;;;2.09;100.00
78198;BME280;67472;51.554;7.812;2023-02-28T10:17:25;102107.66;;;2.34;100.00
78198;BME280;67472;51.554;7.812;2023-02-28T10:20:14;102088.84;;;2.22;100.00
78198;BME280;67472;51.554;7.812;2023-02-28T10:25:58;102101.31;;;2.44;100.00
78198;BME280;67472;51.554;7.812;2023-02-28T10:28:43;102099.91;;;2.63;99.59
78198;BME280;67472;51.554;7.812;2023-02-28T10:31:27;102081.34;;;2.73;97.75
78198;BME280;67472;51.554;7.812;2023-02-28T10:34:12;102079.34;;;2.83;94.40
78198;BME280;67472;51.554;7.812;2023-02-28T10:36:58;102079.28;;;2.86;92.04
78198;BME280;67472;51.554;7.812;2023-02-28T10:39:51;102066.22;;;2.86;90.16
78198;BME280;67472;51.554;7.812;2023-02-28T10:42:35;102077.88;;;2.73;90.01
78198;BME280;67472;51.554;7.812;2023-02-28T10:45:23;102069.78;;;2.83;89.42
78198;BME280;67472;51.554;7.812;2023-02-28T10:51:00;102060.66;;;2.98;87.61
78198;BME280;67472;51.554;7.812;2023-02-28T10:53:51;102056.78;;;3.11;85.71
78198;BME280;67472;51.554;7.812;2023-02-28T10:56:36;102062.94;;;3.09;86.25
78198;BME280;67472;51.554;7.812;2023-02-28T10:59:27;102063.47;;;3.20;85.86
78198;BME280;67472;51.554;7.812;2023-02-28T11:08:16;102040.47;;;3.32;82.48
78198;BME280;67472;51.554;7.812;2023-02-28T11:11:04;102050.34;;;3.51;82.77
78198;BME280;67472;51.554;7.812;2023-02-28T11:13:56;102041.59;;;3.52;82.11
78198;BME280;67472;51.554;7.812;2023-02-28T11:16:40;102049.31;;;3.55;82.96
78198;BME280;67472;51.554;7.812;2023-02-28T11:19:28;102039.63;;;3.58;82.73
78198;BME280;67472;51.554;7.812;2023-02-28T11:22:22;102035.22;;;3.86;81.26
78198;BME280;67472;51.554;7.812;2023-02-28T11:25:09;102033.19;;;4.21;81.91
78198;BME280;67472;51.554;7.812;2023-02-28T11:28:05;102020.75;;;4.03;79.25
78198;BME280;67472;51.554;7.812;2023-02-28T11:33:57;102021.38;;;4.09;79.54
78198;BME280;67472;51.554;7.812;2023-02-28T11:36:42;102020.69;;;4.29;78.91
78198;BME280;67472;51.554;7.812;2023-02-28T11:39:29;102014.38;;;3.85;77.65
78198;BME280;67472;51.554;7.812;2023-02-28T11:45:29;102020.28;;;3.90;78.62
78198;BME280;67472;51.554;7.812;2023-02-28T11:48:49;102030.44;;;3.99;78.90
78198;BME280;67472;51.554;7.812;2023-02-28T11:51:47;102034.69;;;4.51;79.49
78198;BME280;67472;51.554;7.812;2023-02-28T11:58:11;102011.75;;;3.85;78.21
78198;BME280;67472;51.554;7.812;2023-02-28T12:04:37;102044.94;;;4.08;81.36
78198;BME280;67472;51.554;7.812;2023-02-28T12:07:31;102015.19;;;4.36;78.81
78198;BME280;67472;51.554;7.812;2023-02-28T12:10:28;102002.75;;;4.43;77.30
78198;BME280;67472;51.554;7.812;2023-02-28T12:13:21;101979.00;;;4.94;75.25
78198;BME280;67472;51.554;7.812;2023-02-28T12:16:29;101968.84;;;5.30;74.18
78198;BME280;67472;51.554;7.812;2023-02-28T12:19:42;101954.75;;;4.89;73.51
78198;BME280;67472;51.554;7.812;2023-02-28T12:22:34;101952.16;;;4.89;73.39
78198;BME280;67472;51.554;7.812;2023-02-28T12:28:37;101991.13;;;4.73;76.59
78198;BME280;67472;51.554;7.812;2023-02-28T12:31:29;101971.38;;;4.65;74.55
78198;BME280;67472;51.554;7.812;2023-02-28T12:34:20;101958.69;;;4.55;74.40
78198;BME280;67472;51.554;7.812;2023-02-28T12:37:15;101952.38;;;4.83;74.00
78198;BME280;67472;51.554;7.812;2023-02-28T12:40:05;101938.03;;;4.93;72.65
78198;BME280;67472;51.554;7.812;2023-02-28T12:43:04;101941.94;;;5.46;73.33
78198;BME280;67472;51.554;7.812;2023-02-28T12:46:14;101930.66;;;5.24;72.65
78198;BME280;67472;51.554;7.812;2023-02-28T12:49:08;101940.91;;;4.64;73.99
78198;BME280;67472;51.554;7.812;2023-02-28T12:51:54;101958.81;;;4.74;74.92
78198;BME280;67472;51.554;7.812;2023-02-28T12:57:42;101915.03;;;4.56;72.43
78198;BME280;67472;51.554;7.812;2023-02-28T13:00:35;101932.84;;;4.91;74.22
78198;BME280;67472;51.554;7.812;2023-02-28T13:06:53;101933.22;;;5.46;73.89
78198;BME280;67472;51.554;7.812;2023-02-28T13:09:52;101876.03;;;5.15;69.14
78198;BME280;67472;51.554;7.812;2023-02-28T13:12:50;101875.91;;;5.18;69.86
78198;BME280;67472;51.554;7.812;2023-02-28T13:15:34;101909.78;;;5.01;72.42
78198;BME280;67472;51.554;7.812;2023-02-28T13:18:45;101925.13;;;5.10;73.06
78198;BME280;67472;51.554;7.812;2023-02-28T13:21:30;101942.06;;;5.01;75.43
78198;BME280;67472;51.554;7.812;2023-02-28T13:30:01;101944.03;;;4.50;76.75
78198;BME280;67472;51.554;7.812;2023-02-28T13:32:46;101947.50;;;4.74;76.29
78198;BME280;67472;51.554;7.812;2023-02-28T13:35:36;101944.06;;;5.17;76.74
78198;BME280;67472;51.554;7.812;2023-02-28T13:38:33;101943.25;;;5.36;76.39
78198;BME280;67472;51.554;7.812;2023-02-28T13:41:41;101927.19;;;4.80;75.64
78198;BME280;67472;51.554;7.812;2023-02-28T13:44:25;101934.44;;;4.50;76.72
78198;BME280;67472;51.554;7.812;2023-02-28T13:56:10;101940.72;;;4.68;77.23
78198;BME280;67472;51.554;7.812;2023-02-28T13:59:16;101946.75;;;4.70;77.12
78198;BME280;67472;51.554;7.812;2023-02-28T14:05:15;101926.47;;;4.98;75.08
78198;BME280;67472;51.554;7.812;2023-02-28T14:08:13;101918.81;;;5.36;75.04
78198;BME280;67472;51.554;7.812;2023-02-28T14:11:05;101884.53;;;5.20;71.75
78198;BME280;67472;51.554;7.812;2023-02-28T14:13:50;101896.19;;;4.91;72.70
78198;BME280;67472;51.554;7.812;2023-02-28T14:16:44;101885.78;;;4.68;72.85
78198;BME280;67472;51.554;7.812;2023-02-28T14:19:30;101906.91;;;4.64;73.61
78198;BME280;67472;51.554;7.812;2023-02-28T14:22:29;101882.66;;;4.58;72.13
78198;BME280;67472;51.554;7.812;2023-02-28T14:25:36;101897.66;;;4.77;73.91
78198;BME280;67472;51.554;7.812;2023-02-28T14:28:28;101903.94;;;4.94;73.27
78198;BME280;67472;51.554;7.812;2023-02-28T14:37:37;101892.88;;;4.65;72.86
78198;BME280;67472;51.554;7.812;2023-02-28T14:40:30;101909.94;;;4.75;74.04
78198;BME280;67472;51.554;7.812;2023-02-28T14:43:22;101913.06;;;5.06;74.46
78198;BME280;67472;51.554;7.812;2023-02-28T14:46:07;101896.19;;;4.91;73.23
78198;BME280;67472;51.554;7.812;2023-02-28T14:48:51;101896.50;;;4.84;73.78
78198;BME280;67472;51.554;7.812;2023-02-28T14:51:36;101889.78;;;4.55;72.81
78198;BME280;67472;51.554;7.812;2023-02-28T14:54:21;101899.28;;;4.57;74.69
78198;BME280;67472;51.554;7.812;2023-02-28T14:57:26;101897.88;;;4.49;74.67
78198;BME280;67472;51.554;7.812;2023-02-28T15:00:21;101917.66;;;4.56;76.81
78198;BME280;67472;51.554;7.812;2023-02-28T15:03:22;101913.66;;;4.91;75.33
78198;BME280;67472;51.554;7.812;2023-02-28T15:06:16;101899.00;;;4.87;75.03
78198;BME280;67472;51.554;7.812;2023-02-28T15:09:15;101902.56;;;4.63;75.32
78198;BME280;67472;51.554;7.812;2023-02-28T15:12:01;101900.75;;;4.65;75.83
78198;BME280;67472;51.554;7.812;2023-02-28T15:15:20;101898.34;;;4.58;75.43
78198;BME280;67472;51.554;7.812;2023-02-28T15:18:05;101901.16;;;4.54;75.90
78198;BME280;67472;51.554;7.812;2023-02-28T15:20:51;101901.25;;;4.52;75.75
78198;BME280;67472;51.554;7.812;2023-02-28T15:23:37;101882.00;;;4.30;74.92
78198;BME280;67472;51.554;7.812;2023-02-28T15:26:29;101894.34;;;4.27;75.00
78198;BME280;67472;51.554;7.812;2023-02-28T15:29:20;101905.50;;;4.32;75.87
78198;BME280;67472;51.554;7.812;2023-02-28T15:32:07;101898.97;;;4.20;75.51
78198;BME280;67472;51.554;7.812;2023-02-28T15:38:27;101906.38;;;4.32;76.16
78198;BME280;67472;51.554;7.812;2023-02-28T15:41:24;101898.78;;;4.25;75.11
78198;BME280;67472;51.554;7.812;2023-02-28T15:44:23;101896.78;;;4.08;74.63
78198;BME280;67472;51.554;7.812;2023-02-28T15:47:20;101915.78;;;4.13;75.99
78198;BME280;67472;51.554;7.812;2023-02-28T15:50:10;101917.19;;;4.45;76.75
78198;BME280;67472;51.554;7.812;2023-02-28T15:52:58;101918.72;;;4.50;76.50
78198;BME280;67472;51.554;7.812;2023-02-28T15:55:45;101933.31;;;4.57;78.30
78198;BME280;67472;51.554;7.812;2023-02-28T15:58:36;101932.34;;;4.12;78.27
78198;BME280;67472;51.554;7.812;2023-02-28T16:01:29;101923.47;;;4.18;77.60
78198;BME280;67472;51.554;7.812;2023-02-28T16:04:16;101928.44;;;4.70;78.20
78198;BME280;67472;51.554;7.812;2023-02-28T16:07:05;101923.81;;;4.77;76.96
78198;BME280;67472;51.554;7.812;2023-02-28T16:09:50;101929.59;;;4.40;77.98
78198;BME280;67472;51.554;7.812;2023-02-28T16:12:37;101951.81;;;4.05;79.31
78198;BME280;67472;51.554;7.812;2023-02-28T16:15:31;101949.19;;;3.80;79.25
78198;BME280;67472;51.554;7.812;2023-02-28T16:18:19;101960.00;;;3.70;80.89
78198;BME280;67472;51.554;7.812;2023-02-28T16:21:04;101966.50;;;3.58;81.63